Time;durP1;ratioP1;P1;durP2;ratioP2;P2;SDS_P1;SDS_P2;PMS_P1;PMS_P2;Temp;Humidity;BMP_temperature;BMP_pressure;BME280_temperature;BME280_humidity;BME280_pressure;Samples;Min_cycle;Max_cycle;Signal;HPM_P1;HPM_P2
2022/06/25 00:01:59;;;;;;;10.02;9.02;;;18.50;99.90;;;;;;5047412;28;20124;-50
2022/06/25 00:07:08;;;;;;;9.48;8.60;;;18.50;99.90;;;;;;5062200;28;20036;-47
2022/06/25 00:09:34;;;;;;;9.85;9.05;;;18.50;99.90;;;;;;5055559;28;20037;-48
2022/06/25 00:14:44;;;;;;;9.65;8.80;;;18.50;99.90;;;;;;5070684;28;19916;-52
2022/06/25 00:17:09;;;;;;;10.82;9.52;;;18.50;99.90;;;;;;5063126;28;20036;-47
2022/06/25 00:19:35;;;;;;;10.18;9.25;;;18.40;99.90;;;;;;5070478;28;20048;-48
2022/06/25 00:22:01;;;;;;;;;;;18.40;99.90;;;;;;5072230;28;20037;-47
2022/06/25 00:24:26;;;;;;;11.80;10.70;;;18.40;99.90;;;;;;5060655;28;20017;-49
2022/06/25 00:26:52;;;;;;;;;;;18.40;99.90;;;;;;5070494;28;20120;-49
2022/06/25 00:29:17;;;;;;;13.00;11.63;;;18.40;99.90;;;;;;5068618;28;20023;-48
2022/06/25 00:31:43;;;;;;;14.95;11.25;;;18.40;99.90;;;;;;5070145;28;20036;-48
2022/06/25 00:34:09;;;;;;;13.68;12.30;;;18.40;99.90;;;;;;5070919;28;20510;-51
2022/06/25 00:36:35;;;;;;;14.02;11.38;;;18.40;99.90;;;;;;5069444;28;20040;-48
2022/06/25 00:39:00;;;;;;;;;;;18.30;99.90;;;;;;5071727;28;20139;-49
2022/06/25 00:41:26;;;;;;;12.35;11.18;;;18.30;99.90;;;;;;5070963;28;20015;-47
2022/06/25 00:43:52;;;;;;;12.93;11.73;;;18.30;99.90;;;;;;5071012;28;20032;-47
2022/06/25 00:46:17;;;;;;;13.23;12.02;;;18.30;99.90;;;;;;5071109;28;20536;-49
2022/06/25 00:48:43;;;;;;;12.63;11.48;;;18.30;99.90;;;;;;5057502;28;20029;-47
2022/06/25 00:51:11;;;;;;;12.73;11.43;;;18.20;99.90;;;;;;5050659;28;20040;-51
2022/06/25 00:53:41;;;;;;;12.98;11.88;;;18.30;99.90;;;;;;5067272;28;20457;-48
2022/06/25 00:56:09;;;;;;;13.02;11.90;;;18.30;99.90;;;;;;5070889;28;20036;-48
2022/06/25 00:58:39;;;;;;;12.80;11.65;;;18.20;99.90;;;;;;5057980;28;20118;-47
2022/06/25 01:01:08;;;;;;;13.18;11.93;;;18.20;99.90;;;;;;5049362;28;20068;-51
2022/06/25 01:03:34;;;;;;;13.25;12.00;;;18.20;99.90;;;;;;5050243;28;20052;-47
2022/06/25 01:06:01;;;;;;;14.88;13.38;;;18.10;99.90;;;;;;5051884;28;20044;-53
2022/06/25 01:08:27;;;;;;;14.48;12.98;;;18.10;99.90;;;;;;5052091;28;20398;-48
2022/06/25 01:10:52;;;;;;;;;;;18.00;99.90;;;;;;5064967;28;20040;-48
2022/06/25 01:13:22;;;;;;;13.80;11.90;;;18.00;99.90;;;;;;5055122;28;20451;-47
2022/06/25 01:15:51;;;;;;;13.45;12.15;;;17.90;99.90;;;;;;5050449;28;20387;-49
2022/06/25 01:18:17;;;;;;;13.40;12.25;;;17.90;99.90;;;;;;5050055;28;20048;-50
2022/06/25 01:20:44;;;;;;;14.52;13.32;;;17.90;99.90;;;;;;5069932;28;20111;-48
2022/06/25 01:23:11;;;;;;;15.25;13.95;;;17.90;99.90;;;;;;5067840;28;20098;-51
2022/06/25 01:25:37;;;;;;;14.60;13.15;;;17.90;99.90;;;;;;5070743;28;20040;-48
2022/06/25 01:28:04;;;;;;;13.77;12.68;;;17.90;99.90;;;;;;5070013;28;20469;-50
2022/06/25 01:30:30;;;;;;;14.50;13.02;;;17.90;99.90;;;;;;5055397;28;20041;-49
2022/06/25 01:32:56;;;;;;;;;;;17.80;99.90;;;;;;5049491;28;20127;-50
2022/06/25 01:35:21;;;;;;;15.02;13.52;;;17.80;99.90;;;;;;5063654;28;20015;-50
2022/06/25 01:37:47;;;;;;;13.20;11.82;;;17.80;99.90;;;;;;5070339;28;20105;-48
2022/06/25 01:40:13;;;;;;;14.07;12.75;;;17.80;99.90;;;;;;5068423;28;20032;-48
2022/06/25 01:45:24;;;;;;;13.60;12.30;;;17.70;99.90;;;;;;5049932;28;20081;-47
2022/06/25 01:47:49;;;;;;;14.10;12.70;;;17.70;99.90;;;;;;5050166;28;20073;-48
2022/06/25 01:50:15;;;;;;;14.93;13.50;;;17.60;99.90;;;;;;5051211;28;20041;-48
2022/06/25 01:52:42;;;;;;;14.25;12.82;;;17.60;99.90;;;;;;5049954;28;20518;-50
2022/06/25 01:55:09;;;;;;;13.40;12.07;;;17.60;99.90;;;;;;5061767;28;20123;-50
2022/06/25 01:57:35;;;;;;;14.63;13.27;;;17.60;99.90;;;;;;5069757;28;20032;-50
2022/06/25 02:00:00;;;;;;;13.88;12.57;;;17.60;99.90;;;;;;5070094;28;20067;-52
2022/06/25 02:02:26;;;;;;;12.10;11.10;;;17.60;99.90;;;;;;5057444;28;20052;-48
2022/06/25 02:04:52;;;;;;;13.45;12.02;;;17.50;99.90;;;;;;5059345;28;20036;-47
2022/06/25 02:07:17;;;;;;;12.07;11.07;;;17.50;99.90;;;;;;5068321;28;20041;-47
2022/06/25 02:09:43;;;;;;;13.00;11.20;;;17.50;99.90;;;;;;5058416;28;20513;-50
2022/06/25 02:12:09;;;;;;;15.57;14.07;;;17.40;99.90;;;;;;5050783;28;20037;-49
2022/06/25 02:14:34;;;;;;;13.65;12.38;;;17.40;99.90;;;;;;5048682;28;20562;-50
2022/06/25 02:17:00;;;;;;;13.98;12.57;;;17.30;99.90;;;;;;5048744;28;20037;-51
2022/06/25 02:19:25;;;;;;;11.43;10.52;;;17.30;99.90;;;;;;5049972;28;20064;-49
2022/06/25 02:21:51;;;;;;;12.23;10.85;;;17.20;99.90;;;;;;5050520;28;20041;-47
2022/06/25 02:24:16;;;;;;;11.73;10.88;;;17.20;99.90;;;;;;5054817;28;20113;-47
2022/06/25 02:26:42;;;;;;;13.27;12.07;;;17.10;99.90;;;;;;5061038;28;20115;-50
2022/06/25 02:29:08;;;;;;;12.50;11.50;;;17.10;99.90;;;;;;5049134;28;20040;-49
2022/06/25 02:31:33;;;;;;;12.13;11.02;;;17.20;99.90;;;;;;5057922;28;20414;-53
2022/06/25 02:33:59;;;;;;;11.90;10.88;;;17.10;99.90;;;;;;5059587;28;20517;-47
2022/06/25 02:36:25;;;;;;;11.88;10.90;;;17.10;99.90;;;;;;5068797;28;20071;-47
2022/06/25 02:38:50;;;;;;;11.85;10.80;;;17.10;99.90;;;;;;5069588;28;20032;-49
2022/06/25 02:41:16;;;;;;;11.90;10.80;;;17.20;99.90;;;;;;5068960;28;20060;-49
2022/06/25 02:43:41;;;;;;;12.13;10.90;;;17.20;99.90;;;;;;5057171;28;20099;-50
2022/06/25 02:46:07;;;;;;;11.80;10.80;;;17.20;99.90;;;;;;5051942;28;20025;-47
2022/06/25 02:48:33;;;;;;;11.77;10.60;;;17.20;99.90;;;;;;5069707;28;20040;-48
2022/06/25 02:50:59;;;;;;;;;;;17.20;99.90;;;;;;5069991;28;20040;-49
2022/06/25 02:53:24;;;;;;;11.63;10.48;;;17.20;99.90;;;;;;5063826;28;19982;-49
2022/06/25 03:01:19;;;;;;;12.20;11.10;;;17.20;99.90;;;;;;5048666;28;20045;-48
2022/06/25 03:03:45;;;;;;;16.90;11.90;;;17.20;99.90;;;;;;5052725;28;20036;-47
2022/06/25 03:06:11;;;;;;;13.07;11.75;;;17.20;99.90;;;;;;5068961;28;20033;-47
2022/06/25 03:08:36;;;;;;;13.38;11.98;;;17.20;99.90;;;;;;5062202;28;20033;-48
2022/06/25 03:11:02;;;;;;;13.57;12.30;;;17.20;99.90;;;;;;5049809;28;20037;-47
2022/06/25 03:13:29;;;;;;;12.90;11.70;;;17.20;99.90;;;;;;5068026;28;20313;-50
2022/06/25 03:15:55;;;;;;;11.35;10.23;;;17.20;99.90;;;;;;5067223;28;20459;-51
2022/06/25 03:18:20;;;;;;;16.75;12.27;;;17.20;99.90;;;;;;5068993;28;20040;-47
2022/06/25 03:20:46;;;;;;;11.90;10.88;;;17.20;99.90;;;;;;5069314;28;20080;-47
2022/06/25 03:23:11;;;;;;;13.15;9.88;;;17.20;99.90;;;;;;5067614;28;20124;-47
2022/06/25 03:25:37;;;;;;;11.85;10.82;;;17.20;99.90;;;;;;5061571;28;20037;-51
2022/06/25 03:28:02;;;;;;;12.15;10.95;;;17.20;99.90;;;;;;5049632;28;20041;-50
2022/06/25 03:30:28;;;;;;;14.32;10.55;;;17.20;99.90;;;;;;5069262;28;20043;-48
2022/06/25 03:32:54;;;;;;;12.02;10.38;;;17.20;99.90;;;;;;5066892;28;20494;-48
2022/06/25 03:35:19;;;;;;;10.43;9.30;;;17.20;99.90;;;;;;5067405;28;20560;-48
2022/06/25 03:37:45;;;;;;;10.25;9.25;;;17.20;99.90;;;;;;5068321;28;20032;-48
2022/06/25 03:40:11;;;;;;;10.80;9.27;;;17.20;99.90;;;;;;5068638;28;20117;-47
2022/06/25 03:42:37;;;;;;;10.85;9.85;;;17.20;99.90;;;;;;5068713;28;20036;-49
2022/06/25 03:45:03;;;;;;;10.80;9.70;;;17.20;99.90;;;;;;5068706;28;20064;-47
2022/06/25 03:47:28;;;;;;;10.43;9.55;;;17.20;99.90;;;;;;5052720;28;20044;-48
2022/06/25 03:49:55;;;;;;;9.65;8.95;;;17.20;99.90;;;;;;5052043;28;20029;-49
2022/06/25 03:52:20;;;;;;;10.45;9.15;;;17.20;99.90;;;;;;5071448;28;20044;-48
2022/06/25 03:54:46;;;;;;;13.32;10.13;;;17.20;99.90;;;;;;5071851;28;20044;-48
2022/06/25 03:57:12;;;;;;;11.35;9.27;;;17.20;99.90;;;;;;5060510;28;20041;-50
2022/06/25 03:59:37;;;;;;;9.73;8.73;;;17.20;99.90;;;;;;5051817;28;20249;-47
2022/06/25 04:02:03;;;;;;;9.20;8.30;;;17.20;99.90;;;;;;5051868;28;20073;-47
2022/06/25 04:04:28;;;;;;;15.68;9.05;;;17.20;99.90;;;;;;5052088;28;20033;-48
2022/06/25 04:06:54;;;;;;;9.10;8.07;;;17.30;99.90;;;;;;5058345;28;20029;-53
2022/06/25 04:09:20;;;;;;;8.68;7.88;;;17.30;99.90;;;;;;5072586;28;20074;-47
2022/06/25 04:11:45;;;;;;;11.48;8.55;;;17.30;99.90;;;;;;5056721;28;20091;-47
2022/06/25 04:14:11;;;;;;;8.65;7.82;;;17.30;99.90;;;;;;5051172;28;20057;-50
2022/06/25 04:16:36;;;;;;;9.70;8.45;;;17.40;99.90;;;;;;5051529;28;20055;-47
2022/06/25 04:19:02;;;;;;;8.82;8.13;;;17.30;99.90;;;;;;5052067;28;20322;-47
2022/06/25 04:21:28;;;;;;;9.02;8.00;;;17.30;99.90;;;;;;5064049;28;20463;-47
2022/06/25 04:23:53;;;;;;;8.63;7.55;;;17.30;99.90;;;;;;5071481;28;20032;-51
2022/06/25 04:26:19;;;;;;;8.43;7.70;;;17.30;99.90;;;;;;5071473;28;20406;-49
2022/06/25 04:29:03;;;;;;;9.00;7.80;;;17.40;99.90;;;;;;5070366;28;20052;-48
2022/06/25 04:31:29;;;;;;;8.73;7.68;;;17.40;99.90;;;;;;5071200;28;20037;-47
2022/06/25 04:33:55;;;;;;;8.43;7.47;;;17.40;99.90;;;;;;5055248;28;20066;-47
2022/06/25 04:36:20;;;;;;;9.68;7.78;;;17.40;99.90;;;;;;5051546;28;20045;-47
2022/06/25 04:38:46;;;;;;;8.20;7.38;;;17.40;99.90;;;;;;5052801;28;20406;-52
2022/06/25 04:41:12;;;;;;;7.82;7.18;;;17.50;99.90;;;;;;5051287;28;20033;-47
2022/06/25 04:43:38;;;;;;;8.50;7.68;;;17.40;99.90;;;;;;5050832;28;20076;-50
2022/06/25 04:46:03;;;;;;;;;;;17.50;99.90;;;;;;5051582;28;20549;-51
2022/06/25 04:48:29;;;;;;;9.02;7.20;;;17.50;99.90;;;;;;5052574;28;20027;-47
2022/06/25 04:50:55;;;;;;;8.15;7.05;;;17.50;99.90;;;;;;5051616;28;20056;-49
2022/06/25 04:53:20;;;;;;;10.98;7.05;;;17.60;99.90;;;;;;5060614;28;20173;-48
2022/06/25 04:55:46;;;;;;;7.88;7.15;;;17.60;99.90;;;;;;5071085;28;20055;-51
2022/06/25 04:58:11;;;;;;;7.18;6.57;;;17.60;99.90;;;;;;5069026;28;20040;-47
2022/06/25 05:00:37;;;;;;;12.65;6.78;;;17.70;99.90;;;;;;5049980;28;20056;-47
2022/06/25 05:03:03;;;;;;;8.05;5.57;;;17.70;99.90;;;;;;5048185;28;20052;-47
2022/06/25 05:05:29;;;;;;;8.68;6.85;;;17.70;99.90;;;;;;5051686;28;20029;-47
2022/06/25 05:07:54;;;;;;;6.95;6.35;;;17.80;99.90;;;;;;5050837;28;20508;-49
2022/06/25 05:10:20;;;;;;;6.30;5.78;;;17.80;99.90;;;;;;5052065;28;20043;-48
2022/06/25 05:15:30;;;;;;;6.68;6.13;;;17.90;99.90;;;;;;5071293;28;20044;-48
2022/06/25 05:17:55;;;;;;;5.65;5.25;;;18.00;99.90;;;;;;5068539;28;20494;-47
2022/06/25 05:20:21;;;;;;;7.80;5.28;;;18.10;99.90;;;;;;5051935;28;20036;-48
2022/06/25 05:22:47;;;;;;;4.75;4.15;;;18.10;99.90;;;;;;5049747;28;20049;-53
2022/06/25 05:25:12;;;;;;;4.53;4.15;;;18.20;99.90;;;;;;5050828;28;20033;-49
2022/06/25 05:27:38;;;;;;;8.43;5.35;;;18.20;99.90;;;;;;5052858;28;20041;-48
2022/06/25 05:30:05;;;;;;;9.38;4.47;;;18.30;99.90;;;;;;5061543;28;20186;-48
2022/06/25 05:32:30;;;;;;;8.90;5.18;;;18.30;99.90;;;;;;5069270;28;20040;-47
2022/06/25 05:34:57;;;;;;;8.73;4.45;;;18.30;99.90;;;;;;5069908;28;20136;-47
2022/06/25 05:37:23;;;;;;;8.93;4.85;;;18.40;99.90;;;;;;5070372;28;20496;-47
2022/06/25 05:39:49;;;;;;;;;;;18.40;99.90;;;;;;5064951;28;20036;-50
2022/06/25 05:42:14;;;;;;;6.20;4.90;;;18.50;99.90;;;;;;5049976;28;20420;-47
2022/06/25 05:44:40;;;;;;;5.70;4.22;;;18.60;99.90;;;;;;5050366;28;20033;-50
2022/06/25 05:47:05;;;;;;;5.60;5.00;;;18.60;99.90;;;;;;5068887;28;20050;-47
2022/06/25 05:49:31;;;;;;;5.30;4.90;;;18.70;99.90;;;;;;5058798;28;20399;-47
2022/06/25 05:51:56;;;;;;;4.35;4.05;;;18.80;99.90;;;;;;5065974;28;20119;-47
2022/06/25 05:54:22;;;;;;;5.28;4.78;;;18.80;99.90;;;;;;5069256;28;20502;-50
2022/06/25 05:56:47;;;;;;;4.28;3.92;;;18.90;99.90;;;;;;5069989;28;20509;-48
2022/06/25 05:59:13;;;;;;;4.55;3.90;;;19.00;99.90;;;;;;5070043;28;20501;-47
2022/06/25 06:01:38;;;;;;;10.50;3.75;;;19.00;99.90;;;;;;5067780;28;20044;-50
2022/06/25 06:04:05;;;;;;;5.60;3.78;;;19.00;99.90;;;;;;5069130;28;20051;-48
2022/06/25 06:06:30;;;;;;;;;;;19.10;99.90;;;;;;5051412;28;20116;-47
2022/06/25 06:08:56;;;;;;;7.18;3.75;;;19.20;99.90;;;;;;5057565;28;20003;-48
2022/06/25 06:11:22;;;;;;;7.60;3.97;;;19.20;99.90;;;;;;5067168;28;20132;-50
2022/06/25 06:13:47;;;;;;;6.00;4.10;;;19.30;99.90;;;;;;5069205;28;20101;-47
2022/06/25 06:16:13;;;;;;;4.03;3.38;;;19.30;99.90;;;;;;5051993;28;20131;-48
2022/06/25 06:18:38;;;;;;;;;;;19.30;99.90;;;;;;5050092;28;20528;-47
2022/06/25 06:21:04;;;;;;;6.85;3.38;;;19.30;99.90;;;;;;5049488;28;19977;-53
2022/06/25 06:23:29;;;;;;;;;;;19.40;99.90;;;;;;5053955;28;20037;-49
2022/06/25 06:25:55;;;;;;;5.38;3.50;;;19.50;99.90;;;;;;5069545;28;19997;-49
2022/06/25 06:28:20;;;;;;;7.97;3.35;;;19.50;99.90;;;;;;5064675;28;20040;-49
2022/06/25 06:30:46;;;;;;;3.67;3.33;;;19.60;99.90;;;;;;5069694;28;20040;-48
2022/06/25 06:33:12;;;;;;;;;;;19.60;99.90;;;;;;5067248;28;20047;-48
2022/06/25 06:35:37;;;;;;;7.68;3.35;;;19.70;99.90;;;;;;5070173;28;19962;-48
2022/06/25 06:38:03;;;;;;;;;;;19.70;99.90;;;;;;5064093;28;20470;-50
2022/06/25 06:40:28;;;;;;;8.68;3.05;;;19.80;99.90;;;;;;5050432;28;19917;-48
2022/06/25 06:42:55;;;;;;;;;;;19.90;99.90;;;;;;5051184;28;20556;-47
2022/06/25 06:45:22;;;;;;;3.90;2.50;;;19.90;99.90;;;;;;5062340;28;20308;-50
2022/06/25 06:47:47;;;;;;;4.55;2.63;;;20.00;99.90;;;;;;5060027;28;20033;-50
2022/06/25 06:50:13;;;;;;;4.65;2.35;;;20.00;99.90;;;;;;5056779;28;20037;-50
2022/06/25 06:52:39;;;;;;;2.25;1.90;;;20.10;99.90;;;;;;5067252;28;20127;-50
2022/06/25 06:55:04;;;;;;;;;;;20.10;99.90;;;;;;5069270;28;20528;-48
2022/06/25 06:57:31;;;;;;;5.22;2.25;;;20.10;99.90;;;;;;5066124;28;19916;-47
2022/06/25 06:59:58;;;;;;;4.75;2.47;;;20.20;99.90;;;;;;5049202;28;20045;-47
2022/06/25 07:02:25;;;;;;;2.97;2.42;;;20.30;99.90;;;;;;5065352;28;20051;-47
2022/06/25 07:04:52;;;;;;;5.63;1.95;;;20.40;99.90;;;;;;5054851;28;20037;-48
2022/06/25 07:07:20;;;;;;;4.20;2.28;;;20.40;99.90;;;;;;5061789;28;20037;-47
2022/06/25 07:09:46;;;;;;;4.90;2.80;;;20.40;99.90;;;;;;5062077;28;20505;-48
2022/06/25 07:12:11;;;;;;;7.50;2.50;;;20.40;99.90;;;;;;5069020;28;20124;-54
2022/06/25 07:14:37;;;;;;;;;;;20.50;99.90;;;;;;5049955;28;20067;-47
2022/06/25 07:17:03;;;;;;;10.30;2.53;;;20.50;99.90;;;;;;5060810;28;19920;-48
2022/06/25 07:19:28;;;;;;;;;;;20.60;99.90;;;;;;5067986;28;20111;-49
2022/06/25 07:21:54;;;;;;;8.13;2.08;;;20.60;99.90;;;;;;5070665;28;19920;-47
2022/06/25 07:24:21;;;;;;;3.70;1.73;;;20.70;99.90;;;;;;5072255;28;20037;-47
2022/06/25 07:26:47;;;;;;;4.07;1.70;;;20.70;99.90;;;;;;5072349;28;20044;-53
2022/06/25 07:29:12;;;;;;;;;;;20.80;99.90;;;;;;5070375;28;20083;-52
2022/06/25 07:31:38;;;;;;;3.70;1.95;;;20.80;99.90;;;;;;5063890;28;20459;-47
2022/06/25 07:34:03;;;;;;;;;;;20.90;99.90;;;;;;5055630;28;20048;-47
2022/06/25 07:36:29;;;;;;;2.17;1.70;;;20.90;99.90;;;;;;5052437;28;19921;-48
2022/06/25 07:38:54;;;;;;;;;;;21.00;99.90;;;;;;5064038;28;20048;-49
2022/06/25 07:41:20;;;;;;;3.33;1.90;;;21.00;99.90;;;;;;5063329;28;20281;-47
2022/06/25 07:43:46;;;;;;;;;;;21.10;99.90;;;;;;5061198;28;20047;-48
2022/06/25 07:46:11;;;;;;;4.80;1.75;;;21.10;99.90;;;;;;5070336;28;20110;-50
2022/06/25 07:48:37;;;;;;;;;;;21.20;99.90;;;;;;5063092;28;20111;-49
2022/06/25 07:53:47;;;;;;;5.78;2.22;;;21.30;99.90;;;;;;5061006;28;20076;-50
2022/06/25 07:56:12;;;;;;;;;;;21.40;99.90;;;;;;5061831;28;20501;-50
2022/06/25 07:58:38;;;;;;;2.50;1.45;;;21.40;99.90;;;;;;5059807;28;19970;-48
2022/06/25 08:01:04;;;;;;;;;;;21.40;99.90;;;;;;5056454;28;20036;-56
2022/06/25 08:03:29;;;;;;;6.45;1.95;;;21.50;99.90;;;;;;5063991;28;19925;-50
2022/06/25 08:05:55;;;;;;;;;;;21.50;99.90;;;;;;5063474;28;20033;-49
2022/06/25 08:08:21;;;;;;;4.85;1.73;;;21.60;99.90;;;;;;5058123;28;19916;-48
2022/06/25 08:10:47;;;;;;;;;;;21.60;99.90;;;;;;5052782;28;20037;-51
2022/06/25 08:13:12;;;;;;;3.65;1.75;;;21.70;99.90;;;;;;5050392;28;19917;-47
2022/06/25 08:15:38;;;;;;;;;;;21.70;99.90;;;;;;5052429;28;20037;-51
2022/06/25 08:18:03;;;;;;;4.13;1.75;;;21.70;99.90;;;;;;5058822;28;20026;-49
2022/06/25 08:20:29;;;;;;;;;;;21.70;99.90;;;;;;5068545;28;20417;-49
2022/06/25 08:22:54;;;;;;;6.82;1.70;;;21.60;99.90;;;;;;5069766;28;20436;-49
2022/06/25 08:25:20;;;;;;;;;;;21.60;99.90;;;;;;5067377;28;20037;-53
2022/06/25 08:27:50;;;;;;;9.50;2.00;;;21.70;99.90;;;;;;5063817;28;19956;-52
2022/06/25 08:30:23;;;;;;;4.70;1.42;;;21.70;99.90;;;;;;5052476;28;20223;-52
2022/06/25 08:32:50;;;;;;;1.92;1.25;;;21.70;99.90;;;;;;5050081;28;20064;-49
2022/06/25 08:35:16;;;;;;;3.42;1.52;;;21.70;99.90;;;;;;5051267;28;20099;-49
2022/06/25 08:37:46;;;;;;;2.78;1.80;;;21.70;99.90;;;;;;5054899;28;20063;-48
2022/06/25 08:40:13;;;;;;;3.35;1.58;;;21.70;99.90;;;;;;5060580;28;20290;-50
2022/06/25 08:42:39;;;;;;;5.88;1.15;;;21.70;99.90;;;;;;5070072;28;20044;-50
2022/06/25 08:45:05;;;;;;;;;;;21.70;99.90;;;;;;5055861;28;20032;-54
2022/06/25 08:47:30;;;;;;;5.75;1.25;;;21.70;99.90;;;;;;5069158;28;20439;-53
2022/06/25 08:49:57;;;;;;;;;;;21.80;99.90;;;;;;5064072;28;20132;-50
2022/06/25 08:52:23;;;;;;;5.28;1.95;;;21.80;99.90;;;;;;5063568;28;19926;-52
2022/06/25 08:54:50;;;;;;;6.68;2.42;;;21.80;99.90;;;;;;5064221;28;20471;-52
2022/06/25 08:57:16;;;;;;;6.78;1.70;;;21.80;99.90;;;;;;5056165;28;20048;-49
2022/06/25 08:59:42;;;;;;;;;;;21.90;99.90;;;;;;5056480;28;20097;-49
2022/06/25 09:02:07;;;;;;;6.63;2.00;;;21.90;99.90;;;;;;5066569;28;19921;-50
2022/06/25 09:04:33;;;;;;;;;;;21.90;99.90;;;;;;5067967;28;20038;-54
2022/06/25 09:07:15;;;;;;;3.85;1.85;;;21.90;99.90;;;;;;5050723;28;19974;-49
2022/06/25 09:09:49;;;;;;;6.88;2.30;;;22.00;99.90;;;;;;5051339;28;20047;-54
2022/06/25 09:12:16;;;;;;;9.48;2.20;;;22.10;99.90;;;;;;5051437;28;20048;-48
2022/06/25 09:14:42;;;;;;;4.38;1.73;;;22.10;99.90;;;;;;5050154;28;20510;-49
2022/06/25 09:17:10;;;;;;;;;;;22.10;99.90;;;;;;5051131;28;20099;-52
2022/06/25 09:19:50;;;;;;;2.80;1.98;;;22.10;99.90;;;;;;5049327;28;19920;-50
2022/06/25 09:22:17;;;;;;;5.28;1.60;;;22.10;99.90;;;;;;5059224;28;20133;-53
2022/06/25 09:24:59;;;;;;;7.45;2.58;;;22.20;99.90;;;;;;5053377;28;20045;-48
2022/06/25 09:27:33;;;;;;;5.20;1.77;;;22.20;99.90;;;;;;5050117;28;20049;-48
2022/06/25 09:30:10;;;;;;;4.10;1.90;;;22.20;99.90;;;;;;5049908;28;20489;-49
2022/06/25 09:32:46;;;;;;;;;;;22.30;99.90;;;;;;5051578;28;20463;-49
2022/06/25 09:35:13;;;;;;;7.07;1.65;;;22.20;99.90;;;;;;5067253;28;20003;-49
2022/06/25 09:37:39;;;;;;;5.25;1.52;;;22.20;99.90;;;;;;5063089;28;20052;-52
2022/06/25 09:40:06;;;;;;;3.63;1.15;;;22.20;99.90;;;;;;5066263;28;20040;-48
2022/06/25 09:42:33;;;;;;;4.80;1.73;;;22.20;99.90;;;;;;5056732;28;20044;-49
2022/06/25 09:45:11;;;;;;;2.75;1.98;;;22.30;99.90;;;;;;5049421;28;20071;-50
2022/06/25 09:47:43;;;;;;;3.13;1.50;;;22.40;99.90;;;;;;5058665;28;20055;-52
2022/06/25 09:50:17;;;;;;;7.22;1.35;;;22.40;99.90;;;;;;5054078;28;20112;-49
2022/06/25 09:52:55;;;;;;;2.25;1.38;;;22.50;99.90;;;;;;5060108;28;20498;-51
2022/06/25 09:55:34;;;;;;;6.40;1.55;;;22.50;99.90;;;;;;5065221;28;20044;-51
2022/06/25 09:58:01;;;;;;;3.13;1.40;;;22.50;99.90;;;;;;5067680;28;20036;-50
2022/06/25 10:00:28;;;;;;;6.72;1.33;;;22.60;99.90;;;;;;5054016;28;20036;-50
2022/06/25 10:02:57;;;;;;;5.72;1.30;;;22.70;99.90;;;;;;5047319;28;20044;-54
2022/06/25 10:05:40;;;;;;;4.35;1.10;;;22.70;99.90;;;;;;5058705;28;20282;-51
2022/06/25 10:08:10;;;;;;;2.45;1.20;;;22.70;99.90;;;;;;5057483;28;20033;-51
2022/06/25 10:10:42;;;;;;;3.33;1.00;;;22.70;99.90;;;;;;5066901;28;20045;-49
2022/06/25 10:13:08;;;;;;;3.97;1.00;;;22.80;99.90;;;;;;5066010;28;20135;-49
2022/06/25 10:15:35;;;;;;;5.80;1.52;;;22.80;99.90;;;;;;5065862;28;20074;-49
2022/06/25 10:18:03;;;;;;;3.15;1.08;;;22.90;99.90;;;;;;5065654;28;20067;-52
2022/06/25 10:20:30;;;;;;;6.43;1.30;;;22.90;99.90;;;;;;5065264;28;20033;-49
2022/06/25 10:22:58;;;;;;;2.30;0.52;;;23.00;99.90;;;;;;5064512;28;20037;-52
2022/06/25 10:25:25;;;;;;;2.20;0.60;;;23.10;99.90;;;;;;5056456;28;20041;-52
2022/06/25 10:28:03;;;;;;;3.03;1.08;;;23.10;99.90;;;;;;5059383;28;20431;-49
2022/06/25 10:30:49;;;;;;;6.15;0.93;;;23.10;99.50;;;;;;5049604;28;20065;-49
2022/06/25 10:33:23;;;;;;;2.83;1.00;;;23.10;99.10;;;;;;5066360;28;20036;-49
2022/06/25 10:35:51;;;;;;;4.30;1.35;;;23.10;99.40;;;;;;5061772;28;20444;-49
2022/06/25 10:38:21;;;;;;;1.98;0.50;;;23.00;98.30;;;;;;5050077;28;20052;-49
2022/06/25 10:40:58;;;;;;;4.15;0.85;;;23.00;98.90;;;;;;5063740;28;20064;-49
2022/06/25 10:43:49;;;;;;;3.60;0.50;;;23.00;99.00;;;;;;5051512;28;20139;-53
2022/06/25 10:46:28;;;;;;;0.85;0.50;;;22.90;97.80;;;;;;5050082;28;20403;-49
2022/06/25 10:49:19;;;;;;;5.38;0.50;;;22.80;97.20;;;;;;5062066;28;20402;-49
2022/06/25 10:51:47;;;;;;;2.28;0.30;;;22.80;97.60;;;;;;5056774;28;20457;-53
2022/06/25 10:54:21;;;;;;;3.85;1.15;;;22.80;97.90;;;;;;5047515;28;20478;-52
2022/06/25 10:56:52;;;;;;;1.92;0.82;;;22.80;97.80;;;;;;5060336;28;20041;-49
2022/06/25 10:59:46;;;;;;;1.75;0.30;;;22.90;98.40;;;;;;5070739;28;20508;-49
2022/06/25 11:02:15;;;;;;;1.30;0.32;;;23.00;98.40;;;;;;5061237;28;20053;-52
2022/06/25 11:04:56;;;;;;;1.58;0.43;;;23.20;97.80;;;;;;5069788;28;20036;-50
2022/06/25 11:07:25;;;;;;;2.13;0.43;;;23.30;97.20;;;;;;5070645;28;20036;-51
2022/06/25 11:10:00;;;;;;;5.53;0.60;;;23.50;96.90;;;;;;5052018;28;20048;-49
2022/06/25 11:12:27;;;;;;;1.15;0.25;;;23.60;96.60;;;;;;5056016;28;20473;-50
2022/06/25 11:15:06;;;;;;;2.33;0.40;;;23.70;96.10;;;;;;5066161;28;20048;-51
2022/06/25 11:17:32;;;;;;;2.90;0.73;;;23.70;95.30;;;;;;5056261;28;20048;-49
2022/06/25 11:20:03;;;;;;;3.80;0.40;;;23.70;96.10;;;;;;5071770;28;20127;-50
2022/06/25 11:22:29;;;;;;;5.30;0.65;;;23.70;96.20;;;;;;5069568;28;20695;-51
2022/06/25 11:30:23;;;;;;;7.95;1.05;;;23.70;95.70;;;;;;5070448;28;20045;-53
2022/06/25 11:32:51;;;;;;;3.53;0.73;;;23.60;96.10;;;;;;5053707;28;20044;-49
2022/06/25 11:35:17;;;;;;;1.42;0.40;;;23.60;96.30;;;;;;5052532;28;20409;-49
2022/06/25 11:37:42;;;;;;;4.55;0.57;;;23.60;96.50;;;;;;5054875;28;21122;-50
2022/06/25 11:40:15;;;;;;;1.08;0.22;;;23.60;95.80;;;;;;5052506;28;20490;-49
2022/06/25 11:42:43;;;;;;;3.13;0.30;;;23.50;95.70;;;;;;5067835;28;20463;-55
2022/06/25 11:45:09;;;;;;;1.92;0.40;;;23.50;96.50;;;;;;5068459;28;20102;-49
2022/06/25 11:47:36;;;;;;;1.85;0.40;;;23.60;96.50;;;;;;5059833;28;20033;-50
2022/06/25 11:50:11;;;;;;;4.05;0.30;;;23.70;96.00;;;;;;5057700;28;20112;-49
2022/06/25 11:52:43;;;;;;;3.20;0.47;;;23.80;96.00;;;;;;5067986;28;20043;-49
2022/06/25 11:55:10;;;;;;;1.20;0.40;;;23.90;95.80;;;;;;5052718;28;20045;-50
2022/06/25 11:57:43;;;;;;;2.55;0.30;;;24.00;95.70;;;;;;5051008;28;20037;-49
2022/06/25 12:00:13;;;;;;;2.25;0.30;;;24.10;95.80;;;;;;5065197;28;20036;-52
2022/06/25 12:02:39;;;;;;;2.72;0.30;;;24.20;95.70;;;;;;5068831;28;20551;-54
2022/06/25 12:05:05;;;;;;;4.03;0.52;;;24.30;95.40;;;;;;5070333;28;20082;-50
2022/06/25 12:07:33;;;;;;;1.55;0.20;;;24.40;94.90;;;;;;5068921;28;20043;-50
2022/06/25 12:10:07;;;;;;;1.48;0.30;;;24.30;94.10;;;;;;5070604;28;20039;-49
2022/06/25 12:12:34;;;;;;;1.95;0.70;;;24.20;94.00;;;;;;5070186;28;20051;-51
2022/06/25 12:15:03;;;;;;;0.98;0.30;;;24.10;93.60;;;;;;5068818;28;20455;-50
2022/06/25 12:17:35;;;;;;;2.10;0.30;;;23.90;94.10;;;;;;5055673;28;20041;-52
2022/06/25 12:20:12;;;;;;;3.47;0.30;;;23.80;93.90;;;;;;5066553;28;20040;-54
2022/06/25 12:22:46;;;;;;;4.82;0.73;;;23.80;93.30;;;;;;5068832;28;20040;-49
2022/06/25 12:25:21;;;;;;;1.83;0.20;;;23.70;94.00;;;;;;5065638;28;20047;-51
2022/06/25 12:27:48;;;;;;;1.10;0.20;;;23.70;94.30;;;;;;5062259;28;20052;-52
2022/06/25 12:30:22;;;;;;;1.25;0.30;;;23.70;94.00;;;;;;5056551;28;20063;-49
2022/06/25 12:32:47;;;;;;;5.47;0.40;;;23.70;93.30;;;;;;5050459;28;20052;-51
2022/06/25 12:35:19;;;;;;;1.50;0.20;;;23.80;93.80;;;;;;5052943;28;20044;-53
2022/06/25 12:38:01;;;;;;;1.02;0.30;;;23.70;93.80;;;;;;5059244;28;20055;-49
2022/06/25 12:40:28;;;;;;;1.63;0.47;;;23.70;93.10;;;;;;5061469;28;20357;-49
2022/06/25 12:42:56;;;;;;;1.30;0.38;;;23.70;94.20;;;;;;5052857;28;20071;-52
2022/06/25 12:45:22;;;;;;;2.13;0.65;;;23.70;94.50;;;;;;5050339;28;20069;-52
2022/06/25 12:47:47;;;;;;;3.90;0.57;;;23.70;94.10;;;;;;5056863;28;20161;-53
2022/06/25 12:50:24;;;;;;;2.95;0.57;;;23.60;94.70;;;;;;5055426;28;20052;-49
2022/06/25 12:52:50;;;;;;;1.10;0.20;;;23.60;94.60;;;;;;5055593;28;20044;-49
2022/06/25 12:55:21;;;;;;;2.25;0.40;;;23.50;95.00;;;;;;5061224;28;20119;-53
2022/06/25 12:57:47;;;;;;;1.08;0.38;;;23.50;95.40;;;;;;5056151;28;20052;-55
2022/06/25 13:00:21;;;;;;;0.52;0.30;;;23.50;96.30;;;;;;5050334;28;20037;-49
2022/06/25 13:02:47;;;;;;;2.67;0.60;;;23.50;95.70;;;;;;5055430;28;20048;-49
2022/06/25 13:05:14;;;;;;;3.08;0.32;;;23.50;96.00;;;;;;5053503;28;20530;-49
2022/06/25 13:07:40;;;;;;;2.05;0.30;;;23.50;96.00;;;;;;5055456;28;20087;-49
2022/06/25 13:10:06;;;;;;;1.73;0.20;;;23.50;95.50;;;;;;5056133;28;20108;-49
2022/06/25 13:12:32;;;;;;;1.10;0.30;;;23.50;95.50;;;;;;5053332;28;20041;-49
2022/06/25 13:14:58;;;;;;;3.58;0.63;;;23.50;95.50;;;;;;5051262;28;20040;-53
2022/06/25 13:17:23;;;;;;;1.52;0.35;;;23.40;96.30;;;;;;5053291;28;20088;-51